createdAt,value
2018-02-20T00:00:44.061Z,33.3
2018-02-20T00:01:46.341Z,34.0
2018-02-20T00:02:48.430Z,34.4
2018-02-20T00:03:51.359Z,32.4
2018-02-20T00:04:53.221Z,33.5
2018-02-20T00:05:55.108Z,32.4
2018-02-20T00:06:58.820Z,31.7
2018-02-20T00:08:00.568Z,33.9
2018-02-20T00:09:02.634Z,33.4
2018-02-20T00:10:04.765Z,32.2
2018-02-20T00:11:06.926Z,32.7
2018-02-20T00:12:08.930Z,32.9
2018-02-20T00:13:13.100Z,32.1
2018-02-20T00:14:17.235Z,31.6
2018-02-20T00:15:19.195Z,32.3
2018-02-20T00:16:21.086Z,32.7
2018-02-20T00:17:22.989Z,32.0
2018-02-20T00:18:24.958Z,31.6
2018-02-20T00:19:26.987Z,31.5
2018-02-20T00:20:29.147Z,30.6
2018-02-20T00:21:31.266Z,31.3
2018-02-20T00:22:33.280Z,31.0
2018-02-20T00:23:35.856Z,32.0
2018-02-20T00:24:37.752Z,31.6
2018-02-20T00:25:42.397Z,32.2
2018-02-20T00:26:46.629Z,32.9
2018-02-20T00:27:50.199Z,31.6
2018-02-20T00:28:52.263Z,33.3
2018-02-20T00:29:54.130Z,34.5
2018-02-20T00:30:56.125Z,34.6
2018-02-20T00:31:59.815Z,33.9
2018-02-20T00:33:02.024Z,33.2
2018-02-20T00:34:06.581Z,33.9
2018-02-20T00:35:08.580Z,33.5
2018-02-20T00:36:10.431Z,34.3
2018-02-20T00:37:12.319Z,35.1
2018-02-20T00:38:16.561Z,36.9
2018-02-20T00:39:21.061Z,35.4
2018-02-20T00:40:23.314Z,34.6
2018-02-20T00:41:27.736Z,34.9
2018-02-20T00:42:29.645Z,33.7
2018-02-20T00:43:33.103Z,32.1
2018-02-20T00:44:35.334Z,32.9
2018-02-20T00:45:37.292Z,31.8
2018-02-20T00:46:41.216Z,32.7
2018-02-20T00:47:43.476Z,32.4
2018-02-20T00:48:45.665Z,31.4
2018-02-20T00:49:48.054Z,31.7
2018-02-20T00:50:50.314Z,33.7
2018-02-20T00:51:52.211Z,34.4
2018-02-20T00:52:54.249Z,33.9
2018-02-20T00:53:57.893Z,33.7
2018-02-20T00:55:00.105Z,34.9
2018-02-20T00:56:02.019Z,33.9
2018-02-20T00:57:04.093Z,35.2
2018-02-20T00:58:06.375Z,33.9
2018-02-20T00:59:09.051Z,33.4
2018-02-20T01:00:12.865Z,33.9
2018-02-20T01:01:16.720Z,34.9
2018-02-20T01:02:18.722Z,34.8
2018-02-20T01:03:20.778Z,35.4
2018-02-20T01:04:22.935Z,34.0
2018-02-20T01:05:25.123Z,34.5
2018-02-20T01:06:27.109Z,33.8
2018-02-20T01:07:29.223Z,33.5
2018-02-20T01:08:31.249Z,35.2
2018-02-20T01:09:33.675Z,34.2
2018-02-20T01:10:35.652Z,34.0
2018-02-20T01:11:38.018Z,34.5
2018-02-20T01:12:40.008Z,34.4
2018-02-20T01:13:42.375Z,35.8
2018-02-20T01:14:44.763Z,33.4
2018-02-20T01:15:46.885Z,35.6
2018-02-20T01:16:51.888Z,35.6
2018-02-20T01:17:57.156Z,36.0
2018-02-20T01:18:59.389Z,35.2
2018-02-20T01:20:01.437Z,36.3
2018-02-20T01:21:07.967Z,35.2
2018-02-20T01:22:09.939Z,36.4
2018-02-20T01:23:12.021Z,36.0
2018-02-20T01:24:13.926Z,36.5
2018-02-20T01:25:15.990Z,37.7
2018-02-20T01:26:18.356Z,36.6
2018-02-20T01:27:20.420Z,37.9
2018-02-20T01:28:25.928Z,36.8
2018-02-20T01:29:27.865Z,39.2
2018-02-20T01:30:29.784Z,38.2
2018-02-20T01:31:32.115Z,38.5
2018-02-20T01:32:34.242Z,38.5
2018-02-20T01:33:36.401Z,40.3
2018-02-20T01:34:38.517Z,39.2
2018-02-20T01:35:40.976Z,37.9
2018-02-20T01:36:42.982Z,36.9
2018-02-20T01:37:48.919Z,37.6
2018-02-20T01:38:50.857Z,36.3
2018-02-20T01:39:53.334Z,37.7
2018-02-20T01:40:55.375Z,37.4
2018-02-20T01:41:57.459Z,38.3
2018-02-20T01:42:59.479Z,37.8
2018-02-20T01:44:02.013Z,38.2
2018-02-20T01:45:04.579Z,36.4
2018-02-20T01:46:06.575Z,35.5
2018-02-20T01:47:08.500Z,35.9
2018-02-20T01:48:11.082Z,35.7
2018-02-20T01:49:13.002Z,35.5
2018-02-20T01:50:15.532Z,35.7
2018-02-20T01:51:18.137Z,35.9
2018-02-20T01:52:25.888Z,37.3
2018-02-20T01:53:27.846Z,37.2
2018-02-20T01:54:35.228Z,37.0
2018-02-20T01:55:37.359Z,35.4
2018-02-20T01:56:39.859Z,35.6
2018-02-20T01:57:42.373Z,35.8
2018-02-20T01:58:46.996Z,35.2
2018-02-20T01:59:48.986Z,35.1
2018-02-20T02:00:53.406Z,35.9
2018-02-20T02:01:55.379Z,35.6
2018-02-20T02:02:57.927Z,35.9
2018-02-20T02:03:59.864Z,37.1
2018-02-20T02:05:02.500Z,36.5
2018-02-20T02:06:05.013Z,36.7
2018-02-20T02:07:07.032Z,36.2
2018-02-20T02:08:09.732Z,36.6
2018-02-20T02:09:12.260Z,36.3
2018-02-20T02:10:14.265Z,36.8
2018-02-20T02:11:16.271Z,36.5
2018-02-20T02:12:18.292Z,38.2
2018-02-20T02:13:21.236Z,38.0
2018-02-20T02:14:23.992Z,37.5
2018-02-20T02:15:26.053Z,36.0
2018-02-20T02:16:28.727Z,35.8
2018-02-20T02:17:31.331Z,37.0
2018-02-20T02:18:33.912Z,37.0
2018-02-20T02:19:35.913Z,37.9
2018-02-20T02:20:38.352Z,37.3
2018-02-20T02:21:40.330Z,37.0
2018-02-20T02:22:42.432Z,37.2
2018-02-20T02:23:44.477Z,36.7
2018-02-20T02:24:46.579Z,36.6
2018-02-20T02:25:48.618Z,36.1
2018-02-20T02:26:50.626Z,36.7
2018-02-20T02:27:53.524Z,38.7
2018-02-20T02:28:56.654Z,37.7
2018-02-20T02:29:59.393Z,37.7
2018-02-20T02:31:01.398Z,37.4
2018-02-20T02:32:05.018Z,36.9
2018-02-20T02:33:07.797Z,38.8
2018-02-20T02:34:09.874Z,37.9
2018-02-20T02:35:11.977Z,37.5
2018-02-20T02:36:14.169Z,39.0
2018-02-20T02:37:16.163Z,38.5
2018-02-20T02:38:18.815Z,37.4
2018-02-20T02:39:20.826Z,38.7
2018-02-20T02:40:22.854Z,38.2
2018-02-20T02:41:25.005Z,38.4
2018-02-20T02:42:27.692Z,38.5
2018-02-20T02:43:30.141Z,38.0
2018-02-20T02:44:32.848Z,36.8
2018-02-20T02:45:34.838Z,38.3
2018-02-20T02:46:37.569Z,38.8
2018-02-20T02:47:39.570Z,39.2
2018-02-20T02:48:42.423Z,37.7
2018-02-20T02:49:45.079Z,38.3
2018-02-20T02:50:47.653Z,38.4
2018-02-20T02:51:49.629Z,36.4
2018-02-20T02:52:51.736Z,37.4
2018-02-20T02:53:54.274Z,37.5
2018-02-20T02:54:56.794Z,35.8
2018-02-20T02:55:59.324Z,35.8
2018-02-20T02:57:01.861Z,35.6
2018-02-20T02:58:04.565Z,37.3
2018-02-20T02:59:07.082Z,37.1
2018-02-20T03:00:09.153Z,37.6
2018-02-20T03:01:11.304Z,36.3
2018-02-20T03:02:13.396Z,36.8
2018-02-20T03:03:16.052Z,35.7
2018-02-20T03:04:18.369Z,36.5
2018-02-20T03:05:20.914Z,38.1
2018-02-20T03:06:23.388Z,38.0
2018-02-20T03:07:25.383Z,38.0
2018-02-20T03:08:27.796Z,38.6
2018-02-20T03:09:30.437Z,38.8
2018-02-20T03:10:32.423Z,37.9
2018-02-20T03:11:34.906Z,37.7
2018-02-20T03:12:36.871Z,38.6
2018-02-20T03:13:39.332Z,37.6
2018-02-20T03:14:41.372Z,39.8
2018-02-20T03:15:44.008Z,38.4
2018-02-20T03:16:46.047Z,39.7
2018-02-20T03:17:48.539Z,38.9
2018-02-20T03:18:50.947Z,38.3
2018-02-20T03:19:53.452Z,37.8
2018-02-20T03:20:55.739Z,38.1
2018-02-20T03:21:58.288Z,38.9
2018-02-20T03:23:00.716Z,39.1
2018-02-20T03:24:03.285Z,39.0
2018-02-20T03:25:05.698Z,39.3
2018-02-20T03:26:07.836Z,38.9
2018-02-20T03:27:09.914Z,38.9
2018-02-20T03:28:12.380Z,38.2
2018-02-20T03:29:14.890Z,37.8
2018-02-20T03:30:17.447Z,36.9
2018-02-20T03:31:19.433Z,37.3
2018-02-20T03:32:21.432Z,38.6
2018-02-20T03:33:23.582Z,40.0
2018-02-20T03:34:25.619Z,37.3
2018-02-20T03:35:28.253Z,39.4
2018-02-20T03:36:30.906Z,39.4
2018-02-20T03:37:32.899Z,39.7
2018-02-20T03:38:35.044Z,38.3
2018-02-20T03:39:37.522Z,38.7
2018-02-20T03:40:40.349Z,38.0
2018-02-20T03:41:42.377Z,39.6
2018-02-20T03:42:44.433Z,39.1
2018-02-20T03:43:46.502Z,38.7
2018-02-20T03:44:49.187Z,37.4
2018-02-20T03:45:51.731Z,37.3
2018-02-20T03:46:53.855Z,36.5
2018-02-20T03:47:55.824Z,36.3
2018-02-20T03:48:58.206Z,36.8
2018-02-20T03:50:00.723Z,37.1
2018-02-20T03:51:03.202Z,37.4
2018-02-20T03:52:05.598Z,38.0
2018-02-20T03:53:07.982Z,36.8
2018-02-20T03:54:10.018Z,37.6
2018-02-20T03:55:12.523Z,39.4
2018-02-20T03:56:14.929Z,39.4
2018-02-20T03:57:17.379Z,38.8
2018-02-20T03:58:19.803Z,38.7
2018-02-20T03:59:21.922Z,38.4
2018-02-20T04:00:23.945Z,40.0
2018-02-20T04:01:25.965Z,39.7
2018-02-20T04:02:28.616Z,38.5
2018-02-20T04:03:30.638Z,38.9
2018-02-20T04:04:32.831Z,40.7
2018-02-20T04:05:34.762Z,37.9
2018-02-20T04:06:37.163Z,39.6
2018-02-20T04:07:39.178Z,38.2
2018-02-20T04:08:41.240Z,38.1
2018-02-20T04:09:43.270Z,39.4
2018-02-20T04:10:45.771Z,38.3
2018-02-20T04:11:48.213Z,37.7
2018-02-20T04:12:50.280Z,37.7
2018-02-20T04:13:52.459Z,37.3
2018-02-20T04:14:55.028Z,38.7
2018-02-20T04:15:57.087Z,38.8
2018-02-20T04:16:59.087Z,39.8
2018-02-20T04:18:01.189Z,39.2
2018-02-20T04:19:03.623Z,39.6
2018-02-20T04:20:06.160Z,39.5
2018-02-20T04:21:08.229Z,38.1
2018-02-20T04:22:10.429Z,40.1
2018-02-20T04:23:12.920Z,40.2
2018-02-20T04:24:14.961Z,39.6
2018-02-20T04:25:17.166Z,40.1
2018-02-20T04:26:19.584Z,39.2
2018-02-20T04:27:22.088Z,39.4
2018-02-20T04:28:24.558Z,40.0
2018-02-20T04:29:27.021Z,40.3
2018-02-20T04:30:29.483Z,39.9
2018-02-20T04:31:31.862Z,39.6
2018-02-20T04:32:34.404Z,39.7
2018-02-20T04:33:36.831Z,38.3
2018-02-20T04:34:39.038Z,39.8
2018-02-20T04:35:41.571Z,39.2
2018-02-20T04:36:43.634Z,37.7
2018-02-20T04:37:46.138Z,39.6
2018-02-20T04:38:48.550Z,37.8
2018-02-20T04:39:50.955Z,37.4
2018-02-20T04:40:53.498Z,39.0
2018-02-20T04:41:56.192Z,37.8
2018-02-20T04:42:58.763Z,38.0
2018-02-20T04:44:01.252Z,40.7
2018-02-20T04:45:03.339Z,37.8
2018-02-20T04:46:05.361Z,39.3
2018-02-20T04:47:07.472Z,38.5
2018-02-20T04:48:09.844Z,36.7
2018-02-20T04:49:12.247Z,36.4
2018-02-20T04:50:14.572Z,37.8
2018-02-20T04:51:16.969Z,37.1
2018-02-20T04:52:19.294Z,36.9
2018-02-20T04:53:21.867Z,35.8
2018-02-20T04:54:24.175Z,39.5
2018-02-20T04:55:26.353Z,39.0
2018-02-20T04:56:28.836Z,39.7
2018-02-20T04:57:31.247Z,37.2
2018-02-20T04:58:33.559Z,38.9
2018-02-20T04:59:35.941Z,38.3
2018-02-20T05:00:38.339Z,37.1
2018-02-20T05:01:40.397Z,37.0
2018-02-20T05:02:42.775Z,38.3
2018-02-20T05:03:45.239Z,38.6
2018-02-20T05:04:47.318Z,38.5
2018-02-20T05:05:49.698Z,38.2
2018-02-20T05:06:52.023Z,38.0
2018-02-20T05:07:54.104Z,37.7
2018-02-20T05:08:56.562Z,39.1
2018-02-20T05:09:58.618Z,40.4
2018-02-20T05:11:01.039Z,36.8
2018-02-20T05:12:03.422Z,39.3
2018-02-20T05:13:05.462Z,39.6
2018-02-20T05:14:07.885Z,40.1
2018-02-20T05:15:09.969Z,38.5
2018-02-20T05:16:12.496Z,38.5
2018-02-20T05:17:14.495Z,38.3
2018-02-20T05:18:16.736Z,39.4
2018-02-20T05:19:18.789Z,37.9
2018-02-20T05:20:20.809Z,37.2
2018-02-20T05:21:23.682Z,39.4
2018-02-20T05:22:25.649Z,38.3
2018-02-20T05:23:28.314Z,37.7
2018-02-20T05:24:30.460Z,38.8
2018-02-20T05:25:32.892Z,38.0
2018-02-20T05:26:35.320Z,38.6
2018-02-20T05:27:37.524Z,38.5
2018-02-20T05:28:39.834Z,38.7
2018-02-20T05:29:42.064Z,39.6
2018-02-20T05:30:44.178Z,39.0
2018-02-20T05:31:46.348Z,40.4
2018-02-20T05:32:48.589Z,41.5
2018-02-20T05:33:50.682Z,40.7
2018-02-20T05:34:52.816Z,41.1
2018-02-20T05:35:54.510Z,39.6
2018-02-20T05:36:57.759Z,39.3
2018-02-20T05:37:59.563Z,37.6
2018-02-20T05:39:01.248Z,40.5
2018-02-20T05:40:02.965Z,39.5
2018-02-20T05:41:04.880Z,40.9
2018-02-20T05:42:08.605Z,39.3
2018-02-20T05:43:10.444Z,41.7
2018-02-20T05:44:12.329Z,40.9
2018-02-20T05:45:14.161Z,40.1
2018-02-20T05:46:16.359Z,42.2
2018-02-20T05:47:18.508Z,42.1
2018-02-20T05:48:20.585Z,40.3
2018-02-20T05:49:22.503Z,42.0
2018-02-20T05:50:24.945Z,40.6
2018-02-20T05:51:27.018Z,42.4
2018-02-20T05:52:29.501Z,42.2
2018-02-20T05:53:31.646Z,43.8
2018-02-20T05:54:34.110Z,43.9
2018-02-20T05:55:36.328Z,42.9
2018-02-20T05:56:38.540Z,42.4
2018-02-20T05:57:40.697Z,42.9
2018-02-20T05:58:43.557Z,40.5
2018-02-20T05:59:45.736Z,40.9
2018-02-20T06:00:48.300Z,42.0
2018-02-20T06:01:51.495Z,39.4
2018-02-20T06:02:53.908Z,38.3
2018-02-20T06:03:56.091Z,40.1
2018-02-20T06:04:57.858Z,39.0
2018-02-20T06:05:59.971Z,38.8
2018-02-20T06:07:01.644Z,39.5
2018-02-20T06:08:03.323Z,38.4
2018-02-20T06:09:05.047Z,39.2
2018-02-20T06:10:06.894Z,38.5
2018-02-20T06:11:09.166Z,39.9
2018-02-20T06:12:11.808Z,38.4
2018-02-20T06:13:19.403Z,38.6
2018-02-20T06:14:21.925Z,39.7
2018-02-20T06:15:24.466Z,39.2
2018-02-20T06:16:26.478Z,39.7
2018-02-20T06:17:28.176Z,41.7
2018-02-20T06:18:29.912Z,40.4
2018-02-20T06:19:31.645Z,41.4
2018-02-20T06:20:34.577Z,41.3
2018-02-20T06:21:36.334Z,41.2
2018-02-20T06:22:37.958Z,41.5
2018-02-20T06:23:40.619Z,40.7
2018-02-20T06:24:42.603Z,40.0
2018-02-20T06:25:44.747Z,41.4
2018-02-20T06:26:46.791Z,40.9
2018-02-20T06:27:51.437Z,40.8
2018-02-20T06:28:53.586Z,41.8
2018-02-20T06:29:56.424Z,40.5
2018-02-20T06:30:58.525Z,40.4
2018-02-20T06:32:00.560Z,39.8
2018-02-20T06:33:02.474Z,40.0
2018-02-20T06:34:04.398Z,39.8
2018-02-20T06:35:06.544Z,39.9
2018-02-20T06:36:08.909Z,39.5
2018-02-20T06:37:10.821Z,40.5
2018-02-20T06:38:13.324Z,41.6
2018-02-20T06:39:15.730Z,42.4
2018-02-20T06:40:18.159Z,39.6
2018-02-20T06:41:20.195Z,41.8
2018-02-20T06:42:22.083Z,41.3
2018-02-20T06:43:24.015Z,41.2
2018-02-20T06:44:26.022Z,42.5
2018-02-20T06:45:27.909Z,41.8
2018-02-20T06:46:29.826Z,43.3
2018-02-20T06:47:31.714Z,42.9
2018-02-20T06:48:33.600Z,42.2
2018-02-20T06:49:35.711Z,44.3
2018-02-20T06:50:37.601Z,43.4
2018-02-20T06:51:39.373Z,43.0
2018-02-20T06:52:41.481Z,42.0
2018-02-20T06:53:43.224Z,43.9
2018-02-20T06:54:44.942Z,42.7
2018-02-20T06:55:46.680Z,43.2
2018-02-20T06:56:48.514Z,43.4
2018-02-20T06:57:50.459Z,42.4
2018-02-20T06:58:52.163Z,42.1
2018-02-20T06:59:54.534Z,42.6
2018-02-20T07:00:56.287Z,43.4
2018-02-20T07:01:58.422Z,41.8
2018-02-20T07:03:00.587Z,40.8
2018-02-20T07:04:02.765Z,42.8
2018-02-20T07:05:05.230Z,43.0
2018-02-20T07:06:07.640Z,44.1
2018-02-20T07:07:09.814Z,43.0
2018-02-20T07:08:15.095Z,43.9
2018-02-20T07:09:19.713Z,41.0
2018-02-20T07:10:22.137Z,44.4
2018-02-20T07:11:28.949Z,43.9
2018-02-20T07:12:30.924Z,44.8
2018-02-20T07:13:32.984Z,44.3
2018-02-20T07:14:35.100Z,44.3
2018-02-20T07:15:37.278Z,45.0
2018-02-20T07:16:39.286Z,44.9
2018-02-20T07:17:41.870Z,44.4
2018-02-20T07:18:43.929Z,42.5
2018-02-20T07:19:46.029Z,43.7
2018-02-20T07:20:52.978Z,43.5
2018-02-20T07:21:55.056Z,44.7
2018-02-20T07:23:02.376Z,42.6
2018-02-20T07:24:07.468Z,42.9
2018-02-20T07:25:09.593Z,43.2
2018-02-20T07:26:13.171Z,43.3
2018-02-20T07:27:15.253Z,44.2
2018-02-20T07:28:17.694Z,43.5
2018-02-20T07:29:19.711Z,44.2
2018-02-20T07:30:21.888Z,44.7
2018-02-20T07:31:24.020Z,43.5
2018-02-20T07:32:29.574Z,44.0
2018-02-20T07:33:38.255Z,45.5
2018-02-20T07:34:40.253Z,46.4
2018-02-20T07:35:43.022Z,45.5
2018-02-20T07:36:45.135Z,45.2
2018-02-20T07:37:47.201Z,45.9
2018-02-20T07:38:49.449Z,44.5
2018-02-20T07:39:51.601Z,45.1
2018-02-20T07:40:53.918Z,45.4
2018-02-20T07:41:55.847Z,45.0
2018-02-20T07:42:57.915Z,44.4
2018-02-20T07:44:00.138Z,44.1
2018-02-20T07:45:02.054Z,43.3
2018-02-20T07:46:06.129Z,45.4
2018-02-20T07:47:08.310Z,44.1
2018-02-20T07:48:10.300Z,43.4
2018-02-20T07:49:19.564Z,43.9
2018-02-20T07:50:21.545Z,45.1
2018-02-20T07:51:32.251Z,43.6
2018-02-20T07:52:34.255Z,42.0
2018-02-20T07:53:36.724Z,43.3
2018-02-20T07:54:38.844Z,43.6
2018-02-20T07:55:40.783Z,42.9
2018-02-20T07:56:43.169Z,44.6
2018-02-20T07:57:45.231Z,45.0
2018-02-20T07:58:47.533Z,42.8
2018-02-20T07:59:50.027Z,41.5
2018-02-20T08:00:52.314Z,44.7
2018-02-20T08:01:54.329Z,42.6
2018-02-20T08:02:56.285Z,43.4
2018-02-20T08:04:02.318Z,42.5
2018-02-20T08:05:04.466Z,40.2
2018-02-20T08:06:06.677Z,41.0
2018-02-20T08:07:08.635Z,42.5
2018-02-20T08:08:12.558Z,40.6
2018-02-20T08:09:14.836Z,40.5
2018-02-20T08:10:16.737Z,39.4
2018-02-20T08:11:18.761Z,39.0
2018-02-20T08:12:21.042Z,41.8
2018-02-20T08:13:23.200Z,40.4
2018-02-20T08:14:25.402Z,39.6
2018-02-20T08:15:27.692Z,40.0
2018-02-20T08:16:29.614Z,39.6
2018-02-20T08:17:31.547Z,39.8
2018-02-20T08:18:33.434Z,39.9
2018-02-20T08:19:35.923Z,40.0
2018-02-20T08:20:38.069Z,39.9
2018-02-20T08:21:40.631Z,40.0
2018-02-20T08:22:42.584Z,39.2
2018-02-20T08:23:44.904Z,39.5
2018-02-20T08:24:47.220Z,40.1
2018-02-20T08:25:49.818Z,39.1
2018-02-20T08:26:52.210Z,38.5
2018-02-20T08:27:54.475Z,37.7
2018-02-20T08:28:56.656Z,37.5
2018-02-20T08:29:58.945Z,38.3
2018-02-20T08:31:00.836Z,39.1
2018-02-20T08:32:03.050Z,38.2
2018-02-20T08:33:05.580Z,39.4
2018-02-20T08:34:07.713Z,37.8
2018-02-20T08:35:09.532Z,35.8
2018-02-20T08:36:11.289Z,38.8
2018-02-20T08:37:13.130Z,38.8
2018-02-20T08:38:14.997Z,38.0
2018-02-20T08:39:16.907Z,38.2
2018-02-20T08:40:18.742Z,37.8
2018-02-20T08:41:20.577Z,39.0
2018-02-20T08:42:22.648Z,39.6
2018-02-20T08:43:24.929Z,37.8
2018-02-20T08:44:26.744Z,37.6
2018-02-20T08:45:28.541Z,38.0
2018-02-20T08:46:30.394Z,37.4
2018-02-20T08:47:32.159Z,36.6
2018-02-20T08:48:34.171Z,37.5
2018-02-20T08:49:36.334Z,37.1
2018-02-20T08:50:38.406Z,36.7
2018-02-20T08:51:40.765Z,35.6
2018-02-20T08:52:42.602Z,36.8
2018-02-20T08:53:44.363Z,35.8
2018-02-20T08:54:46.122Z,35.2
2018-02-20T08:55:47.880Z,36.0
2018-02-20T08:56:49.682Z,34.9
2018-02-20T08:57:51.457Z,35.9
2018-02-20T08:58:53.202Z,36.9
2018-02-20T08:59:54.928Z,35.5
2018-02-20T09:00:56.704Z,36.9
2018-02-20T09:01:58.561Z,35.5
2018-02-20T09:03:00.335Z,35.1
2018-02-20T09:04:02.109Z,36.5
2018-02-20T09:05:03.856Z,34.8
2018-02-20T09:06:05.612Z,36.3
2018-02-20T09:07:07.447Z,35.6
2018-02-20T09:08:09.324Z,36.3
2018-02-20T09:09:11.197Z,35.8
2018-02-20T09:10:12.951Z,36.6
2018-02-20T09:11:15.240Z,34.9
2018-02-20T09:12:17.404Z,35.6
2018-02-20T09:13:19.089Z,36.1
2018-02-20T09:14:20.868Z,35.5
2018-02-20T09:15:22.652Z,35.8
2018-02-20T09:16:24.445Z,35.4
2018-02-20T09:17:26.239Z,35.7
2018-02-20T09:18:27.974Z,36.1
2018-02-20T09:19:29.709Z,35.0
2018-02-20T09:20:31.572Z,34.8
2018-02-20T09:21:33.290Z,35.7
2018-02-20T09:22:35.008Z,34.2
2018-02-20T09:23:36.813Z,35.4
2018-02-20T09:24:38.572Z,34.9
2018-02-20T09:25:40.357Z,34.2
2018-02-20T09:26:42.164Z,35.7
2018-02-20T09:27:44.192Z,34.2
2018-02-20T09:28:46.041Z,35.0
2018-02-20T09:29:47.820Z,35.2
2018-02-20T09:30:49.622Z,34.8
2018-02-20T09:31:51.405Z,33.8
2018-02-20T09:32:53.125Z,35.6
2018-02-20T09:33:54.844Z,34.7
2018-02-20T09:34:56.658Z,33.3
2018-02-20T09:35:58.511Z,34.8
2018-02-20T09:37:00.342Z,34.9
2018-02-20T09:38:02.105Z,34.0
2018-02-20T09:39:03.920Z,34.6
2018-02-20T09:40:05.741Z,32.6
2018-02-20T09:41:07.474Z,34.3
2018-02-20T09:42:09.224Z,34.2
2018-02-20T09:43:11.053Z,34.2
2018-02-20T09:44:12.878Z,34.2
2018-02-20T09:45:14.686Z,34.9
2018-02-20T09:46:16.430Z,34.2
2018-02-20T09:47:18.265Z,34.4
2018-02-20T09:48:20.544Z,33.6
2018-02-20T09:49:22.693Z,34.8
2018-02-20T09:50:24.806Z,35.3
2018-02-20T09:51:26.655Z,35.4
2018-02-20T09:52:28.392Z,34.8
2018-02-20T09:53:30.142Z,35.5
2018-02-20T09:54:31.852Z,35.6
2018-02-20T09:55:33.676Z,35.1
2018-02-20T09:56:35.405Z,35.8
2018-02-20T09:57:37.165Z,36.8
2018-02-20T09:58:38.939Z,35.3
2018-02-20T09:59:40.738Z,35.0
2018-02-20T10:00:42.512Z,36.6
2018-02-20T10:01:44.341Z,35.9
2018-02-20T10:02:46.093Z,36.3
2018-02-20T10:03:47.863Z,36.0
2018-02-20T10:04:49.656Z,35.4
2018-02-20T10:05:51.399Z,36.6
2018-02-20T10:06:53.173Z,36.4
2018-02-20T10:07:54.986Z,35.4
2018-02-20T10:08:56.718Z,36.0
2018-02-20T10:09:58.567Z,34.9
2018-02-20T10:11:00.929Z,36.0
2018-02-20T10:12:02.998Z,35.6
2018-02-20T10:13:05.275Z,35.9
2018-02-20T10:14:07.462Z,36.0
2018-02-20T10:15:09.583Z,34.9
2018-02-20T10:16:11.764Z,35.7
2018-02-20T10:17:13.539Z,34.0
2018-02-20T10:18:15.249Z,36.4
2018-02-20T10:19:16.984Z,34.3
2018-02-20T10:20:18.736Z,36.2
2018-02-20T10:21:20.527Z,35.5
2018-02-20T10:22:22.319Z,35.6
2018-02-20T10:23:24.119Z,36.7
2018-02-20T10:24:25.929Z,35.6
2018-02-20T10:25:27.760Z,35.6
2018-02-20T10:26:29.555Z,36.8
2018-02-20T10:27:31.395Z,36.1
2018-02-20T10:28:33.166Z,35.7
2018-02-20T10:29:34.904Z,36.2
2018-02-20T10:30:36.631Z,36.0
2018-02-20T10:31:38.367Z,36.6
2018-02-20T10:32:40.140Z,36.9
2018-02-20T10:33:41.875Z,36.5
2018-02-20T10:34:43.666Z,37.8
2018-02-20T10:35:45.470Z,37.6
2018-02-20T10:36:47.242Z,36.2
2018-02-20T10:37:48.972Z,37.0
2018-02-20T10:38:50.707Z,36.9
2018-02-20T10:39:52.517Z,37.0
2018-02-20T10:40:54.304Z,36.9
2018-02-20T10:41:56.109Z,36.8
2018-02-20T10:42:57.921Z,37.6
2018-02-20T10:43:59.697Z,36.8
2018-02-20T10:45:01.446Z,37.5
2018-02-20T10:46:03.208Z,36.4
2018-02-20T10:47:04.970Z,38.3
2018-02-20T10:48:06.743Z,37.8
2018-02-20T10:49:08.519Z,36.4
2018-02-20T10:50:10.310Z,37.1
2018-02-20T10:51:12.071Z,38.3
2018-02-20T10:52:13.789Z,38.3
2018-02-20T10:53:15.502Z,37.9
2018-02-20T10:54:17.265Z,37.7
2018-02-20T10:55:19.032Z,38.1
2018-02-20T10:56:21.005Z,36.5
2018-02-20T10:57:23.141Z,37.8
2018-02-20T10:58:25.395Z,36.0
2018-02-20T10:59:27.523Z,37.6
2018-02-20T11:00:29.745Z,37.4
2018-02-20T11:01:31.615Z,37.4
2018-02-20T11:02:33.345Z,36.9
2018-02-20T11:03:35.167Z,37.2
2018-02-20T11:04:36.904Z,37.0
2018-02-20T11:05:38.663Z,35.5
2018-02-20T11:06:40.467Z,36.6
2018-02-20T11:07:42.543Z,37.5
2018-02-20T11:08:44.297Z,36.8
2018-02-20T11:09:46.043Z,36.1
2018-02-20T11:10:47.842Z,37.7
2018-02-20T11:11:49.626Z,36.6
2018-02-20T11:12:51.465Z,36.6
2018-02-20T11:13:53.216Z,38.0
2018-02-20T11:14:54.969Z,38.6
2018-02-20T11:15:56.739Z,37.4
2018-02-20T11:16:58.569Z,37.1
2018-02-20T11:18:00.320Z,38.8
2018-02-20T11:19:02.152Z,37.3
2018-02-20T11:20:03.925Z,37.0
2018-02-20T11:21:05.699Z,38.5
2018-02-20T11:22:07.528Z,38.1
2018-02-20T11:23:09.270Z,36.9
2018-02-20T11:24:11.100Z,38.7
2018-02-20T11:25:12.892Z,37.8
2018-02-20T11:26:14.689Z,37.6
2018-02-20T11:27:16.414Z,39.6
2018-02-20T11:28:18.152Z,39.3
2018-02-20T11:29:19.911Z,39.6
2018-02-20T11:30:21.639Z,40.4
2018-02-20T11:31:23.361Z,41.2
2018-02-20T11:32:25.112Z,41.6
2018-02-20T11:33:26.910Z,41.6
2018-02-20T11:34:28.727Z,43.0
2018-02-20T11:35:30.479Z,41.8
2018-02-20T11:36:32.238Z,41.9
2018-02-20T11:37:34.006Z,41.5
2018-02-20T11:38:35.848Z,42.6
2018-02-20T11:39:37.636Z,41.8
2018-02-20T11:40:39.350Z,41.4
2018-02-20T11:41:41.097Z,41.7
2018-02-20T11:42:42.968Z,41.6
2018-02-20T11:43:44.803Z,41.5
2018-02-20T11:44:46.595Z,41.2
2018-02-20T11:45:48.426Z,42.1
2018-02-20T11:46:50.294Z,41.8
2018-02-20T11:47:52.109Z,41.2
2018-02-20T11:48:53.870Z,41.5
2018-02-20T11:49:55.603Z,41.7
2018-02-20T11:50:57.379Z,41.3
2018-02-20T11:51:59.145Z,40.2
2018-02-20T11:53:00.939Z,41.0
2018-02-20T11:54:02.706Z,40.8
2018-02-20T11:55:04.424Z,40.4
2018-02-20T11:56:06.226Z,41.9
2018-02-20T11:57:07.980Z,41.5
2018-02-20T11:58:09.730Z,42.0
2018-02-20T11:59:11.521Z,41.9
2018-02-20T12:00:13.249Z,42.8
2018-02-20T12:01:15.087Z,41.5
2018-02-20T12:02:16.845Z,41.2
2018-02-20T12:03:18.665Z,41.8
2018-02-20T12:04:20.413Z,41.1
2018-02-20T12:05:22.244Z,40.9
2018-02-20T12:06:24.079Z,41.0
2018-02-20T12:07:25.893Z,40.5
2018-02-20T12:08:27.656Z,42.3
2018-02-20T12:09:29.396Z,41.3
2018-02-20T12:10:31.180Z,42.7
2018-02-20T12:11:32.939Z,41.9
2018-02-20T12:12:34.665Z,40.9
2018-02-20T12:13:36.497Z,38.9
2018-02-20T12:14:38.279Z,39.8
2018-02-20T12:15:40.061Z,39.6
2018-02-20T12:16:41.800Z,39.5
2018-02-20T12:17:43.708Z,40.0
2018-02-20T12:18:45.464Z,37.9
2018-02-20T12:19:47.206Z,38.0
2018-02-20T12:20:48.931Z,39.9
2018-02-20T12:21:50.826Z,39.0
2018-02-20T12:22:52.618Z,38.4
2018-02-20T12:23:54.425Z,39.0
2018-02-20T12:24:56.160Z,38.6
2018-02-20T12:25:57.905Z,37.7
2018-02-20T12:26:59.684Z,38.6
2018-02-20T12:28:01.511Z,37.6
2018-02-20T12:29:03.312Z,37.6
2018-02-20T12:30:05.080Z,37.7
2018-02-20T12:31:06.831Z,38.8
2018-02-20T12:32:08.612Z,38.0
2018-02-20T12:33:10.489Z,38.7
2018-02-20T12:34:12.288Z,37.1
2018-02-20T12:35:14.031Z,35.8
2018-02-20T12:36:15.790Z,36.1
2018-02-20T12:37:17.646Z,35.6
2018-02-20T12:38:19.560Z,35.9
2018-02-20T12:39:21.467Z,36.5
2018-02-20T12:40:23.340Z,37.3
2018-02-20T12:41:25.562Z,36.8
2018-02-20T12:42:27.711Z,37.7
2018-02-20T12:43:29.618Z,35.8
2018-02-20T12:44:31.443Z,34.8
2018-02-20T12:45:33.212Z,34.2
2018-02-20T12:46:34.959Z,34.6
2018-02-20T12:47:36.837Z,35.4
2018-02-20T12:48:38.635Z,33.6
2018-02-20T12:49:40.755Z,34.5
2018-02-20T12:50:42.839Z,33.3
2018-02-20T12:51:44.594Z,33.8
2018-02-20T12:52:46.341Z,33.5
2018-02-20T12:53:48.398Z,33.1
2018-02-20T12:54:50.246Z,33.8
2018-02-20T12:55:52.313Z,33.5
2018-02-20T12:56:54.611Z,32.5
2018-02-20T12:57:56.826Z,33.4
2018-02-20T12:58:58.925Z,33.7
2018-02-20T13:00:01.183Z,35.2
2018-02-20T13:01:03.293Z,34.2
2018-02-20T13:02:05.366Z,33.3
2018-02-20T13:03:07.521Z,33.5
2018-02-20T13:04:09.643Z,32.6
2018-02-20T13:05:11.770Z,34.2
2018-02-20T13:06:13.836Z,35.1
2018-02-20T13:07:15.661Z,34.9
2018-02-20T13:08:17.410Z,35.4
2018-02-20T13:09:19.621Z,34.6
2018-02-20T13:10:21.676Z,34.1
2018-02-20T13:11:23.405Z,34.8
2018-02-20T13:12:25.242Z,34.8
2018-02-20T13:13:27.153Z,35.4
2018-02-20T13:14:29.386Z,35.6
2018-02-20T13:15:31.344Z,35.5
2018-02-20T13:16:33.129Z,35.2
2018-02-20T13:17:35.063Z,34.8
2018-02-20T13:18:37.284Z,35.9
2018-02-20T13:19:39.696Z,35.5
2018-02-20T13:20:41.769Z,35.5
2018-02-20T13:21:43.792Z,36.2
2018-02-20T13:22:45.536Z,34.4
2018-02-20T13:23:47.540Z,33.8
2018-02-20T13:24:49.345Z,34.1
2018-02-20T13:25:51.530Z,35.3
2018-02-20T13:26:53.678Z,35.7
2018-02-20T13:27:55.791Z,36.7
2018-02-20T13:28:57.938Z,36.3
2018-02-20T13:30:00.068Z,34.8
2018-02-20T13:31:01.944Z,34.9
2018-02-20T13:32:04.066Z,33.1
2018-02-20T13:33:06.273Z,34.1
2018-02-20T13:34:08.432Z,34.9
2018-02-20T13:35:10.200Z,35.4
2018-02-20T13:36:12.014Z,34.5
2018-02-20T13:37:14.010Z,34.2
2018-02-20T13:38:15.844Z,33.3
2018-02-20T13:39:17.586Z,34.7
2018-02-20T13:40:19.346Z,34.0
2018-02-20T13:41:21.075Z,34.4
2018-02-20T13:42:22.827Z,33.8
2018-02-20T13:43:24.655Z,33.5
2018-02-20T13:44:26.439Z,33.3
2018-02-20T13:45:28.225Z,33.6
2018-02-20T13:46:29.951Z,33.5
2018-02-20T13:47:31.736Z,32.7
2018-02-20T13:48:33.425Z,33.9